»·PEaware :: UAL241 KLAX-KLAS

UAL241 :: KLAX-KLAS

FLIGHT INFORMATION

Flight Status: Arrived
Operator:
United Airlines
More flights by this operator :: More flights under this callsign
Pilot: Ryan H. (12491)
Aircraft: BOEING 737-800
(B738)
More flights by this aircraft type
Origin: KLAX Los Angeles Intl
United States
Destination: KLAS McCarran Intl
United States
More flights between these airports :: More routes between these airports
Route: KLAX ORCKA2 MISEN KEPEC6 KLAS
File this flight plan on PilotEdge
Remarks:
Altitude:
(Current/Filed)
270ft
Speed:
(Current/Filed)
450kts
Departed: 30-Nov-17 04:04 PM
Arrived: 30-Nov-17 04:45 PM
Distance/Time
Traveled:
205nm/0:41
Distance/Time
To Go:
Arrived

Flight Plot

Page will automatically refresh every two minutes.

Flight plan parsing failed; only flown route is shown


Map Options




Map Legend


Flown Route
Filed Route
Departure Airport
Arrival Airport
Navaid (VOR, NDB)
Fix

Horizontal Profiles

Position Reports

Time Latitude Longitude Heading Altitude Ground
Speed
30-Nov-17 15:42 33.939843 -118.403821 307 135ft 0kts
30-Nov-17 15:43 33.939843 -118.403821 307 135ft 0kts
30-Nov-17 15:44 33.939843 -118.403821 307 135ft 0kts
30-Nov-17 15:45 33.939843 -118.403821 307 135ft 0kts
30-Nov-17 15:46 33.939843 -118.403821 307 135ft 0kts
30-Nov-17 15:47 33.939843 -118.403821 307 135ft 0kts
30-Nov-17 15:48 33.939843 -118.403821 307 135ft 0kts
30-Nov-17 15:49 33.939843 -118.403821 307 135ft 0kts
30-Nov-17 15:50 33.939843 -118.403821 307 135ft 0kts
30-Nov-17 15:51 33.939843 -118.403821 307 135ft 0kts
30-Nov-17 15:52 33.939843 -118.403821 307 135ft 0kts
30-Nov-17 15:53 33.939843 -118.403821 307 135ft 0kts
30-Nov-17 15:54 33.939843 -118.403821 307 135ft 0kts
30-Nov-17 15:55 33.939843 -118.403821 307 135ft 0kts
30-Nov-17 15:56 33.939843 -118.403821 307 135ft 0kts
30-Nov-17 15:57 33.939843 -118.403821 307 135ft 0kts
30-Nov-17 15:58 33.939843 -118.403821 307 135ft 0kts
30-Nov-17 15:59 33.939843 -118.403821 307 135ft 0kts
30-Nov-17 16:00 33.939843 -118.403821 307 135ft 0kts
30-Nov-17 16:01 33.939583 -118.403423 307 135ft 2kts
30-Nov-17 16:02 33.939453 -118.403225 307 135ft 0kts
30-Nov-17 16:03 33.939258 -118.403714 86 135ft 0kts
30-Nov-17 16:04 33.939258 -118.403714 86 135ft 0kts
30-Nov-17 16:05 33.938670 -118.401125 82 135ft 19kts
30-Nov-17 16:06 33.939758 -118.390264 81 135ft 40kts
30-Nov-17 16:07 33.940677 -118.380799 109 135ft 0kts
30-Nov-17 16:08 33.939690 -118.381444 262 135ft 14kts
30-Nov-17 16:09 33.935539 -118.423667 262 1941ft 175kts
30-Nov-17 16:10 33.921407 -118.498084 249 3841ft 259kts
30-Nov-17 16:11 33.893652 -118.579157 248 4927ft 263kts
30-Nov-17 16:12 33.831802 -118.596127 138 7616ft 285kts
30-Nov-17 16:13 33.837354 -118.507546 38 10776ft 317kts
30-Nov-17 16:14 33.914296 -118.443697 30 13139ft 374kts
30-Nov-17 16:15 33.984367 -118.350650 59 16005ft 410kts
30-Nov-17 16:16 34.037454 -118.245971 52 18304ft 433kts
30-Nov-17 16:17 34.109424 -118.125656 52 20918ft 451kts
30-Nov-17 16:18 34.181987 -118.001190 52 23163ft 466kts
30-Nov-17 16:19 34.257532 -117.871403 53 25114ft 479kts
30-Nov-17 16:20 34.334938 -117.738144 53 26880ft 486kts
30-Nov-17 16:21 34.413511 -117.602653 53 27002ft 494kts
30-Nov-17 16:22 34.492318 -117.466485 53 27003ft 494kts
30-Nov-17 16:23 34.571091 -117.330133 53 27003ft 494kts
30-Nov-17 16:24 34.650080 -117.193150 53 27003ft 494kts
30-Nov-17 16:25 34.728737 -117.056483 53 27003ft 494kts
30-Nov-17 16:26 34.807626 -116.919157 53 27003ft 494kts
30-Nov-17 16:27 34.886197 -116.782129 53 27003ft 494kts
30-Nov-17 16:28 34.964722 -116.644925 53 27003ft 494kts
30-Nov-17 16:29 35.043032 -116.507813 53 26256ft 482kts
30-Nov-17 16:30 35.121292 -116.378649 43 23595ft 462kts
30-Nov-17 16:31 35.208941 -116.269532 43 21711ft 440kts
30-Nov-17 16:32 35.293154 -116.163346 43 19898ft 430kts
30-Nov-17 16:33 35.376117 -116.058646 43 17436ft 427kts
30-Nov-17 16:34 35.457609 -115.955620 43 15274ft 413kts
30-Nov-17 16:35 35.536370 -115.856010 43 13201ft 400kts
30-Nov-17 16:36 35.612983 -115.758993 43 12881ft 398kts
30-Nov-17 16:37 35.690544 -115.660825 43 12877ft 399kts
30-Nov-17 16:38 35.776139 -115.577994 12 12871ft 390kts
30-Nov-17 16:39 35.882071 -115.567880 358 12878ft 383kts
30-Nov-17 16:40 35.978954 -115.520720 53 12524ft 383kts
30-Nov-17 16:41 36.012513 -115.430856 66 12530ft 315kts
30-Nov-17 16:42 36.027555 -115.328668 96 10922ft 299kts
30-Nov-17 16:43 36.020523 -115.229875 95 9972ft 271kts
30-Nov-17 16:44 36.014346 -115.141277 94 8666ft 256kts
30-Nov-17 16:45 36.008475 -115.055806 97 7195ft 242kts
30-Nov-17 16:46 36.037402 -115.005802 353 4891ft 187kts
30-Nov-17 16:47 36.073105 -115.031758 282 3511ft 149kts
30-Nov-17 16:48 36.073674 -115.083882 269 2848ft 147kts
30-Nov-17 16:49 36.073650 -115.132451 269 2193ft 130kts
30-Nov-17 16:50 36.075709 -115.146579 0 2190ft 15kts
30-Nov-17 16:51 36.077862 -115.148330 273 2190ft 15kts
30-Nov-17 16:52 36.078869 -115.151299 337 2190ft 3kts
30-Nov-17 16:53 36.081367 -115.153089 283 2190ft 0kts
30-Nov-17 16:54 36.082478 -115.153746 59 2190ft 1kts
30-Nov-17 16:55 36.082533 -115.153614 63 2190ft 0kts

Navigation Log

Ident Type
Flight plan parsing failed, navigation log unavailable